Multan Weather



Multan's Current Weather

Temprature 37.94o haze

haze

Rain: 0 %

Min Temprature37.94o
Max Temprature37.94o
Humidity47
Wind Speed3.09 m/h
Sun Rise05:27:42
Sun Set19:13:10
Current Time: 24-Jul-2021 14:54:51
Lat/Lon: 30.1956, 71.4753




Multan's Geo Location



Multan's Weather Forecast

Time Overall Temp Min Temp Max Temp Humidity Wind Speed Rain
24-Jul-2021 (Sat)
17:00:00 scattered clouds 38.810 38.810 40.550 41 4.57 m/h 0 %
20:00:00 scattered clouds 38.670 38.670 39.030 38 3.78 m/h 0 %
23:00:00 scattered clouds 37.520 37.520 37.520 38 3.91 m/h 0 %
25-Jul-2021 (Sun)
02:00:00 clear sky 36.450 36.450 36.450 42 3.53 m/h 0 %
05:00:00 clear sky 35.590 35.590 35.590 44 3.08 m/h 0 %
08:00:00 clear sky 38.580 38.580 38.580 33 3.81 m/h 0 %
11:00:00 clear sky 42.180 42.180 42.180 26 2.91 m/h 0 %
14:00:00 clear sky 44.520 44.520 44.520 22 3.7 m/h 0 %
17:00:00 clear sky 44.700 44.700 44.700 21 2.77 m/h 0 %
20:00:00 clear sky 42.360 42.360 42.360 24 2.98 m/h 0 %
23:00:00 clear sky 40.710 40.710 40.710 28 5.96 m/h 0 %
26-Jul-2021 (Mon)
02:00:00 scattered clouds 37.530 37.530 37.530 38 7.36 m/h 0 %
05:00:00 scattered clouds 36.250 36.250 36.250 41 7.23 m/h 0 %
08:00:00 scattered clouds 37.340 37.340 37.340 40 7.79 m/h 0 %
11:00:00 few clouds 42.350 42.350 42.350 28 7.17 m/h 0 %
14:00:00 scattered clouds 44.980 44.980 44.980 23 6.38 m/h 0 %
17:00:00 broken clouds 43.210 43.210 43.210 26 7.68 m/h 0 %
20:00:00 overcast clouds 40.550 40.550 40.550 31 7.52 m/h 0 %
23:00:00 overcast clouds 38.190 38.190 38.190 37 8.67 m/h 0 %
27-Jul-2021 (Tue)
02:00:00 overcast clouds 36.070 36.070 36.070 43 8.33 m/h 0 %
05:00:00 overcast clouds 32.660 32.660 32.660 55 8.82 m/h 0 %
08:00:00 overcast clouds 32.970 32.970 32.970 55 8.68 m/h 0 %
11:00:00 overcast clouds 37.230 37.230 37.230 42 7.08 m/h 0 %
14:00:00 overcast clouds 40.700 40.700 40.700 33 7.32 m/h 0 %
17:00:00 overcast clouds 38.720 38.720 38.720 36 8.15 m/h 0 %
20:00:00 overcast clouds 36.220 36.220 36.220 43 7.47 m/h 0 %
23:00:00 overcast clouds 34.290 34.290 34.290 49 7.17 m/h 0 %
28-Jul-2021 (Wed)
02:00:00 overcast clouds 32.330 32.330 32.330 57 6.99 m/h 0 %
05:00:00 broken clouds 31.090 31.090 31.090 61 6.01 m/h 0 %
08:00:00 clear sky 32.770 32.770 32.770 55 6.46 m/h 0 %
11:00:00 clear sky 37.200 37.200 37.200 41 5.02 m/h 0 %
14:00:00 broken clouds 40.130 40.130 40.130 34 4.66 m/h 0 %
17:00:00 broken clouds 39.570 39.570 39.570 34 5.22 m/h 0 %
20:00:00 overcast clouds 37.420 37.420 37.420 38 6.03 m/h 0 %
23:00:00 light rain 36.010 36.010 36.010 42 5.16 m/h 12 %
29-Jul-2021 (Thu)
02:00:00 broken clouds 34.300 34.300 34.300 49 4.14 m/h 0 %
05:00:00 broken clouds 33.500 33.500 33.500 50 2.45 m/h 0 %
08:00:00 overcast clouds 34.710 34.710 34.710 48 2.12 m/h 0 %
11:00:00 overcast clouds 37.970 37.970 37.970 39 2.48 m/h 0 %
14:00:00 overcast clouds 40.550 40.550 40.550 33 2.25 m/h 0 %

Famous Cities (60)